Time;durP1;ratioP1;P1;durP2;ratioP2;P2;SDS_P1;SDS_P2;PMS_P1;PMS_P2;Temp;Humidity;BMP_temperature;BMP_pressure;BME280_temperature;BME280_humidity;BME280_pressure;Samples;Min_cycle;Max_cycle;Signal;HPM_P1;HPM_P2
2023/10/17 00:01:17;;;;;;;;;;;17.30;67.80;;;;;;5023524;27;92692;-81
2023/10/17 00:03:45;;;;;;;;;;;17.30;67.90;;;;;;5018474;27;89520;-82
2023/10/17 00:06:13;;;;;;;;;;;17.30;67.80;;;;;;5036535;27;89381;-82
2023/10/17 00:08:38;;;;;;;;;;;17.30;67.90;;;;;;5035743;27;90139;-82
2023/10/17 00:11:11;;;;;;;;;;;17.20;67.80;;;;;;5013620;27;92847;-82
2023/10/17 00:13:44;;;;;;;;;;;17.30;67.80;;;;;;5037023;27;89093;-81
2023/10/17 00:16:13;;;;;;;;;;;17.30;67.70;;;;;;5043714;27;89130;-81
2023/10/17 00:18:39;;;;;;;;;;;17.30;67.60;;;;;;5026752;27;92144;-82
2023/10/17 00:21:22;;;;;;;;;;;17.30;67.70;;;;;;5039310;27;88879;-81
2023/10/17 00:23:50;;;;;;;;;;;17.30;67.70;;;;;;5022385;27;88919;-82
2023/10/17 00:26:16;;;;;;;;;;;17.30;67.60;;;;;;5029546;27;89030;-82
2023/10/17 00:28:51;;;;;;;;;;;17.20;67.50;;;;;;5026718;27;92991;-83
2023/10/17 00:31:19;;;;;;;;;;;17.20;67.50;;;;;;5040071;27;89347;-84
2023/10/17 00:33:48;;;;;;;;;;;17.20;67.50;;;;;;5046381;27;90726;-83
2023/10/17 00:36:16;;;;;;;;;;;17.20;67.50;;;;;;5040589;27;92369;-84
2023/10/17 00:38:45;;;;;;;;;;;17.20;67.40;;;;;;5040853;27;89290;-84
2023/10/17 00:41:18;;;;;;;;;;;17.20;67.50;;;;;;5042720;27;90351;-83
2023/10/17 00:43:44;;;;;;;;;;;17.20;67.40;;;;;;5043608;27;89673;-84
2023/10/17 00:46:09;;;;;;;;;;;17.20;67.30;;;;;;5048271;27;88906;-84
2023/10/17 00:48:37;;;;;;;;;;;17.20;67.20;;;;;;5031578;27;92420;-83
2023/10/17 00:51:09;;;;;;;;;;;17.20;67.30;;;;;;5051868;27;89336;-84
2023/10/17 00:53:40;;;;;;;;;;;17.10;67.20;;;;;;5064367;27;88719;-84
2023/10/17 00:56:09;;;;;;;;;;;17.20;67.30;;;;;;5046404;27;88973;-85
2023/10/17 00:58:34;;;;;;;;;;;17.20;67.30;;;;;;5052361;27;93938;-84
2023/10/17 01:03:35;;;;;;;;;;;17.20;67.20;;;;;;5037240;27;89441;-83
2023/10/17 01:06:13;;;;;;;;;;;17.20;67.20;;;;;;5043573;27;89297;-83
2023/10/17 01:08:39;;;;;;;;;;;17.10;67.30;;;;;;5044725;27;91497;-83
2023/10/17 01:11:20;;;;;;;;;;;17.20;67.20;;;;;;5021315;27;91127;-84
2023/10/17 01:13:52;;;;;;;;;;;17.10;67.20;;;;;;5031987;27;89094;-83
2023/10/17 01:16:18;;;;;;;;;;;17.10;67.20;;;;;;5042734;27;87879;-84
2023/10/17 01:18:44;;;;;;;;;;;17.10;67.30;;;;;;5043440;27;90378;-85
2023/10/17 01:21:13;;;;;;;;;;;17.10;67.10;;;;;;5029248;27;90280;-84
2023/10/17 01:23:39;;;;;;;;;;;17.20;67.20;;;;;;5030701;27;91019;-84
2023/10/17 01:26:08;;;;;;;;;;;17.10;67.10;;;;;;5031372;27;90937;-85
2023/10/17 01:28:35;;;;;;;;;;;17.10;67.10;;;;;;5048504;27;89957;-84
2023/10/17 01:31:03;;;;;;;;;;;17.10;67.10;;;;;;5046439;27;88847;-84
2023/10/17 01:33:32;;;;;;;;;;;17.10;67.00;;;;;;5027777;27;89601;-83
2023/10/17 01:35:58;;;;;;;;;;;17.10;67.00;;;;;;5032907;27;89694;-83
2023/10/17 01:38:28;;;;;;;;;;;17.10;67.10;;;;;;5028548;27;93408;-83
2023/10/17 01:41:00;;;;;;;;;;;17.10;67.10;;;;;;5044589;27;89174;-84
2023/10/17 01:43:29;;;;;;;;;;;17.10;67.00;;;;;;5028404;27;90061;-83
2023/10/17 01:45:56;;;;;;;;;;;17.10;67.10;;;;;;5044379;27;89751;-83
2023/10/17 01:48:23;;;;;;;;;;;17.10;67.00;;;;;;5048361;27;91306;-83
2023/10/17 01:50:49;;;;;;;;;;;17.10;67.00;;;;;;5042764;27;90052;-83
2023/10/17 01:53:14;;;;;;;;;;;17.10;67.10;;;;;;5025952;27;88765;-83
2023/10/17 01:55:42;;;;;;;;;;;17.10;67.10;;;;;;5028073;27;89482;-83
2023/10/17 01:58:07;;;;;;;;;;;17.00;67.00;;;;;;5046255;27;92834;-83
2023/10/17 02:00:37;;;;;;;;;;;17.00;67.00;;;;;;5038817;27;89390;-83
2023/10/17 02:03:06;;;;;;;;;;;17.00;66.90;;;;;;5029474;27;89272;-84
2023/10/17 02:05:34;;;;;;;;;;;17.10;67.00;;;;;;5047685;27;89984;-84
2023/10/17 02:08:00;;;;;;;;;;;17.00;67.00;;;;;;5044623;27;89698;-84
2023/10/17 02:10:28;;;;;;;;;;;17.00;67.10;;;;;;5029462;27;91965;-84
2023/10/17 02:12:54;;;;;;;;;;;17.00;67.10;;;;;;5043735;27;91799;-84
2023/10/17 02:15:19;;;;;;;;;;;17.00;67.00;;;;;;5030964;27;88795;-84
2023/10/17 02:17:46;;;;;;;;;;;17.00;67.00;;;;;;5039630;27;89657;-84
2023/10/17 02:23:13;;;;;;;;;;;17.00;67.10;;;;;;5027661;27;89609;-84
2023/10/17 02:25:41;;;;;;;;;;;17.00;67.00;;;;;;5046278;27;89808;-83
2023/10/17 02:28:07;;;;;;;;;;;17.00;67.00;;;;;;5042811;27;90037;-84
2023/10/17 02:30:32;;;;;;;;;;;17.00;67.80;;;;;;5030169;27;90418;-84
2023/10/17 02:33:00;;;;;;;;;;;17.00;67.10;;;;;;5026893;27;89353;-84
2023/10/17 02:35:42;;;;;;;;;;;17.00;67.10;;;;;;5027213;27;93917;-84
2023/10/17 02:38:08;;;;;;;;;;;17.00;67.10;;;;;;5045144;27;90405;-84
2023/10/17 02:40:34;;;;;;;;;;;17.00;67.20;;;;;;5041388;27;90690;-83
2023/10/17 02:43:03;;;;;;;;;;;17.00;67.20;;;;;;5048932;27;91099;-84
2023/10/17 02:45:28;;;;;;;;;;;17.00;67.10;;;;;;5026646;27;89140;-83
2023/10/17 02:47:57;;;;;;;;;;;17.00;67.20;;;;;;5032085;27;92900;-83
2023/10/17 02:52:52;;;;;;;;;;;17.00;67.10;;;;;;5039974;27;89352;-83
2023/10/17 02:55:24;;;;;;;;;;;17.00;67.00;;;;;;5027445;27;88401;-82
2023/10/17 02:57:53;;;;;;;;;;;16.90;66.90;;;;;;5027720;27;93676;-82
2023/10/17 03:00:22;;;;;;;;;;;17.00;66.80;;;;;;5025956;27;93141;-83
2023/10/17 03:02:52;;;;;;;;;;;17.00;66.80;;;;;;5025816;27;91032;-83
2023/10/17 03:05:18;;;;;;;;;;;17.00;67.00;;;;;;5022147;27;90139;-83
2023/10/17 03:07:49;;;;;;;;;;;16.90;66.90;;;;;;5043062;27;89812;-83
2023/10/17 03:10:20;;;;;;;;;;;16.90;67.10;;;;;;5022963;27;92785;-83
2023/10/17 03:12:55;;;;;;;;;;;16.90;67.10;;;;;;5023802;27;89563;-83
2023/10/17 03:15:23;;;;;;;;;;;16.90;67.20;;;;;;5029861;27;89546;-83
2023/10/17 03:17:54;;;;;;;;;;;16.90;67.20;;;;;;5022215;27;91954;-84
2023/10/17 03:20:20;;;;;;;;;;;16.80;67.30;;;;;;5044928;27;89251;-84
2023/10/17 03:22:46;;;;;;;;;;;16.90;67.30;;;;;;5022939;27;89414;-83
2023/10/17 03:25:24;;;;;;;;;;;16.90;67.30;;;;;;5029657;27;89518;-83
2023/10/17 03:27:50;;;;;;;;;;;16.80;67.30;;;;;;5042590;27;92679;-83
2023/10/17 03:30:19;;;;;;;;;;;16.90;67.30;;;;;;5038394;27;90008;-83
2023/10/17 03:35:24;;;;;;;;;;;16.80;67.30;;;;;;5042102;27;89858;-82
2023/10/17 03:37:49;;;;;;;;;;;16.80;67.30;;;;;;5023328;27;92287;-81
2023/10/17 03:40:30;;;;;;;;;;;16.80;67.30;;;;;;5021049;27;93146;-81
2023/10/17 03:43:11;;;;;;;;;;;16.80;67.20;;;;;;5037886;27;89999;-83
2023/10/17 03:45:43;;;;;;;;;;;16.90;67.40;;;;;;5023855;27;88692;-81
2023/10/17 03:48:20;;;;;;;;;;;16.80;67.30;;;;;;5044702;27;90851;-81
2023/10/17 03:53:29;;;;;;;;;;;16.80;67.30;;;;;;5044987;27;91018;-80
2023/10/17 03:55:55;;;;;;;;;;;16.80;67.20;;;;;;5045284;27;89668;-80
2023/10/17 04:00:50;;;;;;;;;;;16.80;67.10;;;;;;5049230;27;89476;-81
2023/10/17 04:03:21;;;;;;;;;;;16.80;67.10;;;;;;5070142;27;89264;-83
2023/10/17 04:05:49;;;;;;;;;;;16.80;67.20;;;;;;5066858;27;89274;-81
2023/10/17 04:08:26;;;;;;;;;;;16.80;67.00;;;;;;5068036;27;90059;-82
2023/10/17 04:13:37;;;;;;;;;;;16.80;67.00;;;;;;5033014;27;89211;-83
2023/10/17 04:16:09;;;;;;;;;;;16.80;66.90;;;;;;5031867;27;89777;-83
2023/10/17 04:18:37;;;;;;;;;;;16.80;67.10;;;;;;5033089;27;90685;-82
2023/10/17 04:21:29;;;;;;;;;;;16.80;67.20;;;;;;5016105;27;92806;-81
2023/10/17 04:23:52;;;;;;;;;;;16.80;67.10;;;;;;5036766;27;88932;-80
2023/10/17 04:26:27;;;;;;;;;;;16.80;67.10;;;;;;5023567;27;89348;-82
2023/10/17 04:28:54;;;;;;;;;;;16.80;67.10;;;;;;5036767;27;91761;-80
2023/10/17 04:31:28;;;;;;;;;;;16.80;66.90;;;;;;5024081;27;92567;-81
2023/10/17 04:34:07;;;;;;;;;;;16.80;67.00;;;;;;5013480;27;89728;-82
2023/10/17 04:36:36;;;;;;;;;;;16.80;67.00;;;;;;5021368;27;89620;-82
2023/10/17 04:39:18;;;;;;;;;;;16.80;66.90;;;;;;5042011;27;90680;-81
2023/10/17 04:44:50;;;;;;;;;;;16.80;66.50;;;;;;5039102;27;89822;-82
2023/10/17 04:49:54;;;;;;;;;;;16.80;66.60;;;;;;5035101;27;90265;-84
2023/10/17 04:52:40;;;;;;;;;;;16.80;66.60;;;;;;5021468;27;92288;-83
2023/10/17 04:55:40;;;;;;;;;;;16.80;66.50;;;;;;5023949;27;89656;-83
2023/10/17 04:58:30;;;;;;;;;;;16.70;67.00;;;;;;5034436;27;90470;-84
2023/10/17 05:01:17;;;;;;;;;;;16.70;66.60;;;;;;5035947;27;90371;-82
2023/10/17 05:03:46;;;;;;;;;;;16.70;66.70;;;;;;5035457;27;89529;-83
2023/10/17 05:09:00;;;;;;;;;;;16.70;66.90;;;;;;5037730;27;89242;-83
2023/10/17 06:17:48;;;;;;;;;;;16.60;68.70;;;;;;5037548;27;89933;-80
2023/10/17 06:20:14;;;;;;;;;;;16.60;68.80;;;;;;5042726;27;89387;-80
2023/10/17 06:31:10;;;;;;;;;;;16.60;68.70;;;;;;5034772;27;89382;-80
2023/10/17 06:33:35;;;;;;;;;;;16.60;68.70;;;;;;5034038;27;90460;-80
2023/10/17 06:36:13;;;;;;;;;;;16.60;68.70;;;;;;5036596;27;89777;-80
2023/10/17 06:38:47;;;;;;;;;;;16.60;68.60;;;;;;5033267;27;90415;-80
2023/10/17 06:41:27;;;;;;;;;;;16.60;68.60;;;;;;5037982;27;92403;-80
2023/10/17 06:44:04;;;;;;;;;;;16.60;68.60;;;;;;5036392;27;89450;-80
2023/10/17 06:46:30;;;;;;;;;;;16.60;68.60;;;;;;5032865;27;90743;-80
2023/10/17 06:48:57;;;;;;;;;;;16.50;68.60;;;;;;5040490;27;90025;-81
2023/10/17 06:51:30;;;;;;;;;;;16.60;68.40;;;;;;5033468;27;89104;-80
2023/10/17 06:54:06;;;;;;;;;;;16.50;68.40;;;;;;5043498;27;89837;-80
2023/10/17 06:56:38;;;;;;;;;;;16.50;68.40;;;;;;5039727;27;89361;-81
2023/10/17 06:59:04;;;;;;;;;;;16.60;68.40;;;;;;5014157;27;94401;-80
2023/10/17 07:01:33;;;;;;;;;;;16.60;68.30;;;;;;5039328;27;91663;-80
2023/10/17 07:04:01;;;;;;;;;;;16.60;68.30;;;;;;5040842;27;89375;-80
2023/10/17 07:06:28;;;;;;;;;;;16.60;68.10;;;;;;5040553;27;89406;-78
2023/10/17 07:08:54;;;;;;;;;;;16.60;68.10;;;;;;5042581;27;91624;-80
2023/10/17 07:13:59;;;;;;;;;;;16.60;68.10;;;;;;5058452;27;90818;-80
2023/10/17 07:16:32;;;;;;;;;;;16.60;68.00;;;;;;5052682;27;89531;-80
2023/10/17 07:19:09;;;;;;;;;;;16.60;68.00;;;;;;5037643;27;90026;-79
2023/10/17 07:21:55;;;;;;;;;;;16.60;68.00;;;;;;5015607;27;95857;-78
2023/10/17 07:24:23;;;;;;;;;;;16.60;67.90;;;;;;5032865;27;91204;-78
2023/10/17 07:26:52;;;;;;;;;;;16.60;67.70;;;;;;5035031;27;90297;-79
2023/10/17 07:29:21;;;;;;;;;;;16.60;67.70;;;;;;5035360;27;90319;-79
2023/10/17 07:31:51;;;;;;;;;;;16.60;67.70;;;;;;5035390;27;91318;-78
2023/10/17 07:34:17;;;;;;;;;;;16.60;67.70;;;;;;5037422;27;90174;-78
2023/10/17 07:36:47;;;;;;;;;;;16.60;67.60;;;;;;5029339;27;89770;-79
2023/10/17 07:39:22;;;;;;;;;;;16.60;67.60;;;;;;5038090;27;91143;-78
2023/10/17 07:41:54;;;;;;;;;;;16.60;67.60;;;;;;5032128;27;89433;-78
2023/10/17 07:44:21;;;;;;;;;;;16.70;67.50;;;;;;5037679;27;89473;-78
2023/10/17 07:49:36;;;;;;;;;;;16.70;67.40;;;;;;5034315;27;91566;-78
2023/10/17 07:52:12;;;;;;;;;;;16.70;67.30;;;;;;5035650;27;91221;-78
2023/10/17 07:57:36;;;;;;;;;;;16.70;67.30;;;;;;5010725;27;89086;-79
2023/10/17 08:00:24;;;;;;;;;;;16.70;67.10;;;;;;5041951;27;90118;-79
2023/10/17 08:02:51;;;;;;;;;;;16.70;67.10;;;;;;5035707;27;90264;-78
2023/10/17 08:05:23;;;;;;;;;;;16.70;66.90;;;;;;5035463;27;89599;-78
2023/10/17 08:07:49;;;;;;;;;;;16.70;66.90;;;;;;5040599;27;88786;-78
2023/10/17 08:10:30;;;;;;;;;;;16.70;66.90;;;;;;5034483;27;89477;-79
2023/10/17 08:12:58;;;;;;;;;;;16.70;66.70;;;;;;5037347;27;90158;-78
2023/10/17 08:15:31;;;;;;;;;;;16.70;66.60;;;;;;5040060;27;90752;-80
2023/10/17 08:17:58;;;;;;;;;;;16.70;66.70;;;;;;5040937;27;89586;-75
2023/10/17 08:23:09;;;;;;;;;;;16.70;66.60;;;;;;5039543;27;89466;-76
2023/10/17 08:25:39;;;;;;;;;;;16.80;66.70;;;;;;5036716;27;90585;-76
2023/10/17 08:28:13;;;;;;;;;;;16.80;66.60;;;;;;5043054;27;89925;-76
2023/10/17 08:30:39;;;;;;;;;;;16.80;66.60;;;;;;5036217;27;90092;-76
2023/10/17 08:35:37;;;;;;;;;;;16.80;66.60;;;;;;5041895;27;91261;-75
2023/10/17 08:38:03;;;;;;;;;;;16.80;66.50;;;;;;5041402;27;89259;-76
2023/10/17 08:40:39;;;;;;;;;;;16.80;66.50;;;;;;5037710;27;92406;-77
2023/10/17 08:43:06;;;;;;;;;;;16.80;66.40;;;;;;5033306;27;91063;-77
2023/10/17 08:45:36;;;;;;;;;;;16.80;66.50;;;;;;5038635;27;90542;-75
2023/10/17 08:48:01;;;;;;;;;;;16.80;66.30;;;;;;5035995;27;89823;-76
2023/10/17 08:50:39;;;;;;;;;;;16.80;66.40;;;;;;5019848;27;93050;-76
2023/10/17 08:53:21;;;;;;;;;;;16.70;66.20;;;;;;5024332;27;92235;-76
2023/10/17 08:55:48;;;;;;;;;;;16.70;66.20;;;;;;5036729;27;89529;-75
2023/10/17 08:58:15;;;;;;;;;;;16.70;66.30;;;;;;5042299;27;88751;-76
2023/10/17 09:03:23;;;;;;;;;;;16.70;66.20;;;;;;5036209;27;90693;-79
2023/10/17 09:05:58;;;;;;;;;;;16.70;66.20;;;;;;5041464;27;92103;-76
2023/10/17 09:11:14;;;;;;;;;;;16.70;66.20;;;;;;5037344;27;90971;-77
2023/10/17 09:14:11;;;;;;;;;;;16.60;66.20;;;;;;5042021;27;90116;-77
2023/10/17 09:16:34;;;;;;;;;;;16.60;66.20;;;;;;5036537;27;90169;-75
2023/10/17 09:19:08;;;;;;;;;;;16.70;66.20;;;;;;5040291;27;89360;-75
2023/10/17 09:21:34;;;;;;;;;;;16.70;66.20;;;;;;5018914;27;94038;-76
2023/10/17 09:24:00;;;;;;;;;;;16.70;66.10;;;;;;5039904;27;89347;-76
2023/10/17 09:26:25;;;;;;;;;;;16.70;65.90;;;;;;5042225;27;90071;-79
2023/10/17 09:28:59;;;;;;;;;;;16.70;65.90;;;;;;5040049;27;89730;-77
2023/10/17 09:31:26;;;;;;;;;;;16.70;65.90;;;;;;5039715;27;91618;-77
2023/10/17 09:33:53;;;;;;;;;;;16.80;66.00;;;;;;5036850;27;91356;-77
2023/10/17 09:36:19;;;;;;;;;;;16.70;65.60;;;;;;5046458;27;90179;-77
2023/10/17 09:38:45;;;;;;;;;;;16.80;65.70;;;;;;5039512;27;89833;-77
2023/10/17 09:41:11;;;;;;;;;;;16.80;65.60;;;;;;5019897;27;93147;-79
2023/10/17 09:43:37;;;;;;;;;;;16.80;65.60;;;;;;5039339;27;90168;-77
2023/10/17 09:46:03;;;;;;;;;;;16.80;65.70;;;;;;5040987;27;89781;-78
2023/10/17 09:48:36;;;;;;;;;;;16.80;65.60;;;;;;5038993;27;89432;-77
2023/10/17 09:51:02;;;;;;;;;;;16.90;65.60;;;;;;5041288;27;89806;-78
2023/10/17 09:53:32;;;;;;;;;;;16.90;65.50;;;;;;5042035;27;89725;-77
2023/10/17 09:56:06;;;;;;;;;;;16.90;65.50;;;;;;5039312;27;90393;-77
2023/10/17 09:58:33;;;;;;;;;;;16.90;65.40;;;;;;5035804;27;89838;-77
2023/10/17 10:01:06;;;;;;;;;;;17.00;65.30;;;;;;5040784;27;92792;-77
2023/10/17 10:03:35;;;;;;;;;;;17.00;65.20;;;;;;5039884;27;89644;-77
2023/10/17 10:06:21;;;;;;;;;;;17.10;65.00;;;;;;5027350;27;89829;-77
2023/10/17 10:08:47;;;;;;;;;;;17.00;64.90;;;;;;5045225;27;90486;-78
2023/10/17 10:11:12;;;;;;;;;;;17.10;64.80;;;;;;5034851;27;91966;-77
2023/10/17 10:14:00;;;;;;;;;;;17.10;64.70;;;;;;5027436;27;91489;-77
2023/10/17 10:16:46;;;;;;;;;;;17.10;64.70;;;;;;5038818;27;89779;-77
2023/10/17 10:19:14;;;;;;;;;;;17.10;64.60;;;;;;5040347;27;89571;-78
2023/10/17 10:21:53;;;;;;;;;;;17.20;64.40;;;;;;5047239;27;90643;-78
2023/10/17 10:24:24;;;;;;;;;;;17.30;64.40;;;;;;5046718;27;90853;-80
2023/10/17 10:27:09;;;;;;;;;;;17.30;64.10;;;;;;5043756;27;89875;-77
2023/10/17 10:29:35;;;;;;;;;;;17.30;64.10;;;;;;5027065;27;89588;-78
2023/10/17 10:32:06;;;;;;;;;;;17.30;63.90;;;;;;5034954;27;90461;-77
2023/10/17 10:34:35;;;;;;;;;;;17.30;63.80;;;;;;5039777;27;89433;-78
2023/10/17 10:37:03;;;;;;;;;;;17.40;63.80;;;;;;5034287;27;90283;-80
2023/10/17 10:39:30;;;;;;;;;;;17.40;63.70;;;;;;5022745;27;89378;-80
2023/10/17 10:42:00;;;;;;;;;;;17.40;63.50;;;;;;5038497;27;90187;-78
2023/10/17 10:44:26;;;;;;;;;;;17.50;63.60;;;;;;5038253;27;89401;-78
2023/10/17 10:46:52;;;;;;;;;;;17.40;63.40;;;;;;5044723;27;90171;-78
2023/10/17 10:49:24;;;;;;;;;;;17.50;63.60;;;;;;5034010;27;89581;-78
2023/10/17 10:51:50;;;;;;;;;;;17.50;63.70;;;;;;5039069;27;90194;-77
2023/10/17 10:54:17;;;;;;;;;;;17.60;63.60;;;;;;5036129;27;89640;-80
2023/10/17 10:56:51;;;;;;;;;;;17.60;63.60;;;;;;5025664;27;89257;-80
2023/10/17 10:59:23;;;;;;;;;;;17.60;63.30;;;;;;5015948;27;90023;-80
2023/10/17 11:01:49;;;;;;;;;;;17.70;63.30;;;;;;5034828;27;90266;-79
2023/10/17 11:04:14;;;;;;;;;;;17.70;63.30;;;;;;5035208;27;90654;-80
2023/10/17 11:06:40;;;;;;;;;;;17.60;63.70;;;;;;5036045;27;89633;-80
2023/10/17 11:09:09;;;;;;;;;;;17.60;63.90;;;;;;5022175;27;89937;-80
2023/10/17 11:11:49;;;;;;;;;;;17.70;64.60;;;;;;5034636;27;90694;-79
2023/10/17 11:14:17;;;;;;;;;;;17.60;64.60;;;;;;5039463;27;92907;-80
2023/10/17 11:16:46;;;;;;;;;;;17.70;64.30;;;;;;5042048;27;90124;-81
2023/10/17 11:19:19;;;;;;;;;;;17.70;64.20;;;;;;5037386;27;89301;-80
2023/10/17 11:21:50;;;;;;;;;;;17.70;63.80;;;;;;5036639;27;90192;-80
2023/10/17 11:24:17;;;;;;;;;;;17.80;63.40;;;;;;5036271;27;92227;-81
2023/10/17 11:26:42;;;;;;;;;;;17.80;63.10;;;;;;5037321;27;88837;-80
2023/10/17 11:29:08;;;;;;;;;;;17.80;63.10;;;;;;5032583;27;88684;-80
2023/10/17 11:31:34;;;;;;;;;;;17.80;63.40;;;;;;5035361;27;89716;-80
2023/10/17 11:34:04;;;;;;;;;;;17.80;63.20;;;;;;5032036;27;90243;-80
2023/10/17 11:36:35;;;;;;;;;;;17.80;62.70;;;;;;5042537;27;90556;-80
2023/10/17 11:39:04;;;;;;;;;;;17.90;62.60;;;;;;5036849;27;89381;-80
2023/10/17 11:41:31;;;;;;;;;;;17.90;62.40;;;;;;5033687;27;90678;-79
2023/10/17 11:44:04;;;;;;;;;;;17.90;62.30;;;;;;5035835;27;93179;-80
2023/10/17 11:46:30;;;;;;;;;;;17.90;62.00;;;;;;5038068;27;90066;-80
2023/10/17 11:49:20;;;;;;;;;;;17.90;61.80;;;;;;5038547;27;89198;-80
2023/10/17 11:52:09;;;;;;;;;;;18.00;61.80;;;;;;5036029;27;90047;-80
2023/10/17 11:54:53;;;;;;;;;;;18.00;61.50;;;;;;5025728;27;89324;-80
2023/10/17 11:57:22;;;;;;;;;;;18.00;61.40;;;;;;5032212;27;89561;-80
2023/10/17 11:59:58;;;;;;;;;;;18.10;61.30;;;;;;5038385;27;89326;-80
2023/10/17 12:02:24;;;;;;;;;;;18.10;61.80;;;;;;5033620;27;90690;-80
2023/10/17 12:04:50;;;;;;;;;;;18.10;61.10;;;;;;5036672;27;90215;-79
2023/10/17 12:07:15;;;;;;;;;;;18.10;60.90;;;;;;5031087;27;89661;-80
2023/10/17 12:09:41;;;;;;;;;;;18.10;61.10;;;;;;5037492;27;89748;-80
2023/10/17 12:12:06;;;;;;;;;;;18.20;61.20;;;;;;5034174;27;90214;-80
2023/10/17 12:14:33;;;;;;;;;;;18.20;62.10;;;;;;5027004;27;90065;-79
2023/10/17 12:17:00;;;;;;;;;;;18.20;61.80;;;;;;5034873;27;89348;-80
2023/10/17 12:19:26;;;;;;;;;;;18.30;61.30;;;;;;5015134;27;89553;-79
2023/10/17 12:21:53;;;;;;;;;;;18.30;61.20;;;;;;5035300;27;89742;-80
2023/10/17 12:24:20;;;;;;;;;;;18.30;61.00;;;;;;5012953;27;91144;-79
2023/10/17 12:26:46;;;;;;;;;;;18.40;60.90;;;;;;5021246;27;92929;-79
2023/10/17 12:29:12;;;;;;;;;;;18.40;60.80;;;;;;5034193;27;90094;-80
2023/10/17 12:31:39;;;;;;;;;;;18.40;60.70;;;;;;5038112;27;89647;-79
2023/10/17 12:34:07;;;;;;;;;;;18.50;60.80;;;;;;5030084;27;90064;-80
2023/10/17 12:36:35;;;;;;;;;;;18.50;60.60;;;;;;5036192;27;90354;-79
2023/10/17 12:39:02;;;;;;;;;;;18.50;60.70;;;;;;5041272;27;89430;-79
2023/10/17 12:41:29;;;;;;;;;;;18.50;61.50;;;;;;5012759;27;94108;-79
2023/10/17 12:43:54;;;;;;;;;;;18.60;60.90;;;;;;5018964;27;92142;-80
2023/10/17 12:46:20;;;;;;;;;;;18.60;60.80;;;;;;5033595;27;89463;-77
2023/10/17 12:48:46;;;;;;;;;;;18.60;60.60;;;;;;5032347;27;89242;-79
2023/10/17 12:51:12;;;;;;;;;;;18.60;60.60;;;;;;5036421;27;90912;-78
2023/10/17 12:53:38;;;;;;;;;;;18.60;61.50;;;;;;5036930;27;89590;-79
2023/10/17 12:56:05;;;;;;;;;;;18.60;60.70;;;;;;5038108;27;91321;-81
2023/10/17 12:58:32;;;;;;;;;;;18.70;60.80;;;;;;5039034;27;89248;-79
2023/10/17 13:00:58;;;;;;;;;;;18.70;60.70;;;;;;5022533;27;92758;-81
2023/10/17 13:03:25;;;;;;;;;;;18.70;60.70;;;;;;5042543;27;89091;-81
2023/10/17 13:05:51;;;;;;;;;;;18.70;60.70;;;;;;5036157;27;89449;-82
2023/10/17 13:08:17;;;;;;;;;;;18.70;60.80;;;;;;5037532;27;88804;-81
2023/10/17 13:10:43;;;;;;;;;;;18.70;60.70;;;;;;5040264;27;90753;-81
2023/10/17 13:13:10;;;;;;;;;;;18.80;60.60;;;;;;5040681;27;88958;-81
2023/10/17 13:15:36;;;;;;;;;;;18.70;60.60;;;;;;5041448;27;90297;-80
2023/10/17 13:18:04;;;;;;;;;;;18.80;60.70;;;;;;5040626;27;90547;-81
2023/10/17 13:20:29;;;;;;;;;;;18.80;60.70;;;;;;5040993;27;91565;-81
2023/10/17 13:22:56;;;;;;;;;;;18.80;60.70;;;;;;5038887;27;89388;-80
2023/10/17 13:25:22;;;;;;;;;;;18.80;60.70;;;;;;5042325;27;89440;-79
2023/10/17 13:27:47;;;;;;;;;;;18.80;60.50;;;;;;5043016;27;89108;-81
2023/10/17 13:30:13;;;;;;;;;;;18.80;60.50;;;;;;5056522;27;91409;-80
2023/10/17 13:32:38;;;;;;;;;;;18.80;60.50;;;;;;5069927;27;89238;-80
2023/10/17 13:35:04;;;;;;;;;;;18.90;60.60;;;;;;5050652;27;89344;-80
2023/10/17 13:37:30;;;;;;;;;;;18.80;60.50;;;;;;5052064;27;89621;-80
2023/10/17 13:39:56;;;;;;;;;;;18.80;60.60;;;;;;5049744;27;91446;-81
2023/10/17 13:42:21;;;;;;;;;;;18.80;60.60;;;;;;5050062;27;92073;-81
2023/10/17 13:44:47;;;;;;;;;;;18.80;60.60;;;;;;5038094;27;89433;-81
2023/10/17 13:47:13;;;;;;;;;;;18.80;60.40;;;;;;5042886;27;89439;-79
2023/10/17 13:49:39;;;;;;;;;;;18.80;60.30;;;;;;5041153;27;89072;-81
2023/10/17 13:52:05;;;;;;;;;;;18.80;60.30;;;;;;5042013;27;90297;-82
2023/10/17 13:54:37;;;;;;;;;;;18.80;60.30;;;;;;5037624;27;88887;-81
2023/10/17 13:57:06;;;;;;;;;;;18.90;60.30;;;;;;5041243;27;88665;-81
2023/10/17 13:59:38;;;;;;;;;;;18.90;60.30;;;;;;5039366;27;91374;-81
2023/10/17 14:02:07;;;;;;;;;;;18.90;60.30;;;;;;5038525;27;89481;-81
2023/10/17 14:04:35;;;;;;;;;;;18.90;60.30;;;;;;5040237;27;90613;-82
2023/10/17 14:07:01;;;;;;;;;;;18.90;60.30;;;;;;5019338;27;89256;-81
2023/10/17 14:09:29;;;;;;;;;;;18.90;60.30;;;;;;5039254;27;89978;-81
2023/10/17 14:11:56;;;;;;;;;;;18.90;60.40;;;;;;5038626;27;90040;-82
2023/10/17 14:14:25;;;;;;;;;;;18.80;60.40;;;;;;5023819;27;88874;-80
2023/10/17 14:16:51;;;;;;;;;;;18.80;60.60;;;;;;5035838;27;89507;-82
2023/10/17 14:19:28;;;;;;;;;;;18.70;60.50;;;;;;5036975;27;89430;-81
2023/10/17 14:22:04;;;;;;;;;;;18.70;60.50;;;;;;5022547;27;91825;-81
2023/10/17 14:24:49;;;;;;;;;;;18.60;60.60;;;;;;5038833;27;89305;-81
2023/10/17 14:27:22;;;;;;;;;;;18.60;60.80;;;;;;5019298;27;89715;-79
2023/10/17 14:29:51;;;;;;;;;;;18.60;60.70;;;;;;5043254;27;90802;-82
2023/10/17 14:32:29;;;;;;;;;;;18.60;60.90;;;;;;5041787;27;89939;-81
2023/10/17 14:34:58;;;;;;;;;;;18.60;60.90;;;;;;5020708;27;88960;-80
2023/10/17 14:37:24;;;;;;;;;;;18.50;60.90;;;;;;5039739;27;89121;-81
2023/10/17 14:39:53;;;;;;;;;;;18.50;61.10;;;;;;5031949;27;90359;-82
2023/10/17 14:42:19;;;;;;;;;;;18.50;61.20;;;;;;5038859;27;89790;-82
2023/10/17 14:44:49;;;;;;;;;;;18.50;61.30;;;;;;5041114;27;94387;-82
2023/10/17 14:47:17;;;;;;;;;;;18.50;61.20;;;;;;5041363;27;88018;-82
2023/10/17 14:49:42;;;;;;;;;;;18.50;61.50;;;;;;5019813;27;93052;-82
2023/10/17 14:52:08;;;;;;;;;;;18.50;61.50;;;;;;5039123;27;89315;-82
2023/10/17 14:54:34;;;;;;;;;;;18.50;61.50;;;;;;5039459;27;90306;-82
2023/10/17 14:57:06;;;;;;;;;;;18.50;61.40;;;;;;5044415;27;89016;-81
2023/10/17 14:59:31;;;;;;;;;;;18.40;61.40;;;;;;5038769;27;90121;-83
2023/10/17 15:01:57;;;;;;;;;;;18.50;61.50;;;;;;5038918;27;89504;-81
2023/10/17 15:04:23;;;;;;;;;;;18.50;61.50;;;;;;5042885;27;89126;-82
2023/10/17 15:06:50;;;;;;;;;;;18.40;61.50;;;;;;5034353;27;90482;-82
2023/10/17 15:09:18;;;;;;;;;;;18.40;61.50;;;;;;5024774;27;93106;-83
2023/10/17 15:11:43;;;;;;;;;;;18.40;61.50;;;;;;5037734;27;89773;-83
2023/10/17 15:14:09;;;;;;;;;;;18.50;61.60;;;;;;5037179;27;88950;-83
2023/10/17 15:16:34;;;;;;;;;;;18.50;61.70;;;;;;5039821;27;88876;-81
2023/10/17 15:19:00;;;;;;;;;;;18.50;61.60;;;;;;5034523;27;90680;-82
2023/10/17 15:21:26;;;;;;;;;;;18.50;61.40;;;;;;5037540;27;90021;-83
2023/10/17 15:23:52;;;;;;;;;;;18.50;61.40;;;;;;5037648;27;89062;-79
2023/10/17 15:26:19;;;;;;;;;;;18.50;61.50;;;;;;5014357;27;91644;-88
2023/10/17 15:28:44;;;;;;;;;;;18.60;61.30;;;;;;5036865;27;90236;-84
2023/10/17 15:31:10;;;;;;;;;;;18.60;61.30;;;;;;5019021;27;92541;-89
2023/10/17 15:33:37;;;;;;;;;;;18.50;61.20;;;;;;5033458;27;89837;-89
2023/10/17 15:36:04;;;;;;;;;;;18.60;61.20;;;;;;5042376;27;88702;-88
2023/10/17 15:38:33;;;;;;;;;;;18.60;61.10;;;;;;5020525;27;93325;-86
2023/10/17 15:41:00;;;;;;;;;;;18.50;61.10;;;;;;5035425;27;89783;-87
2023/10/17 15:43:25;;;;;;;;;;;18.60;61.20;;;;;;5030342;27;89931;-87
2023/10/17 15:45:54;;;;;;;;;;;18.60;61.20;;;;;;5022599;27;89607;-87
2023/10/17 15:48:23;;;;;;;;;;;18.50;61.20;;;;;;5036424;27;89476;-86
2023/10/17 15:50:49;;;;;;;;;;;18.50;61.20;;;;;;5031054;27;90027;-83
2023/10/17 15:53:14;;;;;;;;;;;18.50;61.20;;;;;;5017334;27;89203;-86
2023/10/17 15:55:40;;;;;;;;;;;18.50;61.30;;;;;;5015272;27;89933;-87
2023/10/17 15:58:06;;;;;;;;;;;18.50;61.40;;;;;;5034254;27;89636;-87
2023/10/17 16:00:31;;;;;;;;;;;18.50;61.40;;;;;;5030086;27;88964;-85
2023/10/17 16:02:58;;;;;;;;;;;18.50;61.20;;;;;;5038234;27;88810;-84
2023/10/17 16:05:24;;;;;;;;;;;18.50;61.50;;;;;;5017000;27;90151;-84
2023/10/17 16:07:49;;;;;;;;;;;18.40;61.40;;;;;;5014571;27;93980;-82
2023/10/17 16:10:18;;;;;;;;;;;18.40;61.90;;;;;;5015981;27;93027;-83
2023/10/17 16:12:44;;;;;;;;;;;18.40;62.10;;;;;;5029553;27;89542;-80
2023/10/17 16:15:10;;;;;;;;;;;18.50;62.60;;;;;;5026599;27;89413;-81
2023/10/17 16:17:36;;;;;;;;;;;18.40;62.90;;;;;;5035416;27;89856;-81
2023/10/17 16:20:06;;;;;;;;;;;18.40;63.00;;;;;;5033633;27;90621;-81
2023/10/17 16:22:35;;;;;;;;;;;18.40;62.90;;;;;;5038614;27;89884;-81
2023/10/17 16:25:04;;;;;;;;;;;18.40;63.20;;;;;;5021282;27;88937;-81
2023/10/17 16:27:32;;;;;;;;;;;18.30;63.40;;;;;;5040618;27;90119;-82
2023/10/17 16:29:59;;;;;;;;;;;18.40;63.50;;;;;;5037919;27;89550;-81